sensor_id;sensor_type;location;lat;lon;timestamp;pressure;altitude;pressure_sealevel;temperature;humidity
45369;BME280;51342;55.250;37.668;2023-05-12T00:00:25;100190.28;;;4.78;71.07
45369;BME280;51342;55.250;37.668;2023-05-12T00:02:57;100191.16;;;4.78;71.36
45369;BME280;51342;55.250;37.668;2023-05-12T00:05:28;100192.31;;;4.82;71.34
45369;BME280;51342;55.250;37.668;2023-05-12T00:08:00;100195.94;;;4.84;71.40
45369;BME280;51342;55.250;37.668;2023-05-12T00:10:31;100198.22;;;4.81;71.38
45369;BME280;51342;55.250;37.668;2023-05-12T00:13:02;100198.09;;;4.79;71.54
45369;BME280;51342;55.250;37.668;2023-05-12T00:15:36;100196.91;;;4.76;71.63
45369;BME280;51342;55.250;37.668;2023-05-12T00:18:07;100201.13;;;4.75;71.67
45369;BME280;51342;55.250;37.668;2023-05-12T00:20:39;100193.31;;;4.74;71.84
45369;BME280;51342;55.250;37.668;2023-05-12T00:23:10;100196.00;;;4.75;71.75
45369;BME280;51342;55.250;37.668;2023-05-12T00:25:42;100197.25;;;4.70;71.88
45369;BME280;51342;55.250;37.668;2023-05-12T00:28:13;100189.44;;;4.69;72.12
45369;BME280;51342;55.250;37.668;2023-05-12T00:30:45;100189.44;;;4.69;72.03
45369;BME280;51342;55.250;37.668;2023-05-12T00:33:16;100188.84;;;4.71;72.25
45369;BME280;51342;55.250;37.668;2023-05-12T00:35:48;100194.97;;;4.73;72.62
45369;BME280;51342;55.250;37.668;2023-05-12T00:38:19;100204.47;;;4.74;72.61
45369;BME280;51342;55.250;37.668;2023-05-12T00:40:51;100212.16;;;4.74;73.10
45369;BME280;51342;55.250;37.668;2023-05-12T00:43:22;100198.97;;;4.80;72.90
45369;BME280;51342;55.250;37.668;2023-05-12T00:45:53;100195.94;;;4.84;73.23
45369;BME280;51342;55.250;37.668;2023-05-12T00:48:25;100203.88;;;4.87;73.10
45369;BME280;51342;55.250;37.668;2023-05-12T00:50:57;100208.38;;;4.90;73.39
45369;BME280;51342;55.250;37.668;2023-05-12T00:53:30;100204.91;;;4.89;73.47
45369;BME280;51342;55.250;37.668;2023-05-12T00:56:02;100204.28;;;4.92;73.45
45369;BME280;51342;55.250;37.668;2023-05-12T00:58:33;100194.03;;;4.92;73.46
45369;BME280;51342;55.250;37.668;2023-05-12T01:01:05;100198.66;;;4.96;73.51
45369;BME280;51342;55.250;37.668;2023-05-12T01:03:36;100197.88;;;4.97;73.64
45369;BME280;51342;55.250;37.668;2023-05-12T01:06:15;100203.91;;;4.97;73.50
45369;BME280;51342;55.250;37.668;2023-05-12T01:08:48;100199.69;;;4.98;73.72
45369;BME280;51342;55.250;37.668;2023-05-12T01:11:21;100203.28;;;5.00;73.81
45369;BME280;51342;55.250;37.668;2023-05-12T01:13:53;100199.97;;;5.01;73.93
45369;BME280;51342;55.250;37.668;2023-05-12T01:16:30;100203.13;;;4.98;73.86
45369;BME280;51342;55.250;37.668;2023-05-12T01:19:05;100207.53;;;4.99;74.15
45369;BME280;51342;55.250;37.668;2023-05-12T01:21:42;100208.44;;;5.00;74.00
45369;BME280;51342;55.250;37.668;2023-05-12T01:24:14;100211.00;;;5.00;74.06
45369;BME280;51342;55.250;37.668;2023-05-12T01:26:48;100208.69;;;5.03;74.20
45369;BME280;51342;55.250;37.668;2023-05-12T01:29:20;100210.47;;;5.04;73.98
45369;BME280;51342;55.250;37.668;2023-05-12T01:31:52;100208.56;;;5.01;73.87
45369;BME280;51342;55.250;37.668;2023-05-12T01:34:25;100215.34;;;5.01;73.97
45369;BME280;51342;55.250;37.668;2023-05-12T01:36:57;100218.69;;;5.00;73.88
45369;BME280;51342;55.250;37.668;2023-05-12T01:39:28;100223.53;;;4.97;74.20
45369;BME280;51342;55.250;37.668;2023-05-12T01:42:00;100214.16;;;4.97;73.91
45369;BME280;51342;55.250;37.668;2023-05-12T01:44:31;100217.63;;;4.98;74.13
45369;BME280;51342;55.250;37.668;2023-05-12T01:47:03;100221.63;;;4.94;74.12
45369;BME280;51342;55.250;37.668;2023-05-12T01:49:37;100221.44;;;4.93;73.95
45369;BME280;51342;55.250;37.668;2023-05-12T01:52:10;100217.38;;;4.95;74.23
45369;BME280;51342;55.250;37.668;2023-05-12T01:54:41;100216.84;;;4.99;74.11
45369;BME280;51342;55.250;37.668;2023-05-12T01:57:13;100219.06;;;5.04;73.82
45369;BME280;51342;55.250;37.668;2023-05-12T01:59:45;100219.22;;;5.06;73.78
45369;BME280;51342;55.250;37.668;2023-05-12T02:02:16;100218.69;;;5.10;73.82
45369;BME280;51342;55.250;37.668;2023-05-12T02:04:47;100221.16;;;5.19;74.10
45369;BME280;51342;55.250;37.668;2023-05-12T02:07:19;100213.50;;;5.29;74.37
45369;BME280;51342;55.250;37.668;2023-05-12T02:09:50;100205.31;;;5.43;74.21
45369;BME280;51342;55.250;37.668;2023-05-12T02:12:22;100217.28;;;5.63;74.40
45369;BME280;51342;55.250;37.668;2023-05-12T02:14:53;100216.13;;;5.80;74.15
45369;BME280;51342;55.250;37.668;2023-05-12T02:17:25;100220.13;;;5.87;74.01
45369;BME280;51342;55.250;37.668;2023-05-12T02:20:00;100220.66;;;5.93;73.98
45369;BME280;51342;55.250;37.668;2023-05-12T02:22:32;100212.56;;;6.08;74.18
45369;BME280;51342;55.250;37.668;2023-05-12T02:25:03;100212.16;;;6.24;73.69
45369;BME280;51342;55.250;37.668;2023-05-12T02:27:35;100220.22;;;6.29;73.35
45369;BME280;51342;55.250;37.668;2023-05-12T02:30:07;100209.59;;;6.24;73.24
45369;BME280;51342;55.250;37.668;2023-05-12T02:32:39;100213.56;;;6.21;73.31
45369;BME280;51342;55.250;37.668;2023-05-12T02:35:12;100217.44;;;6.16;73.59
45369;BME280;51342;55.250;37.668;2023-05-12T02:37:44;100216.94;;;6.09;73.66
45369;BME280;51342;55.250;37.668;2023-05-12T02:40:16;100215.88;;;6.18;73.58
45369;BME280;51342;55.250;37.668;2023-05-12T02:42:47;100221.00;;;6.28;73.41
45369;BME280;51342;55.250;37.668;2023-05-12T02:45:18;100221.66;;;6.35;73.10
45369;BME280;51342;55.250;37.668;2023-05-12T02:47:50;100216.38;;;6.34;73.22
45369;BME280;51342;55.250;37.668;2023-05-12T02:50:21;100219.84;;;6.34;73.00
45369;BME280;51342;55.250;37.668;2023-05-12T02:52:52;100221.38;;;6.32;73.33
45369;BME280;51342;55.250;37.668;2023-05-12T02:55:24;100226.66;;;6.34;73.26
45369;BME280;51342;55.250;37.668;2023-05-12T02:57:55;100222.41;;;6.34;73.39
45369;BME280;51342;55.250;37.668;2023-05-12T03:00:27;100223.19;;;6.33;73.82
45369;BME280;51342;55.250;37.668;2023-05-12T03:02:58;100216.13;;;6.41;73.63
45369;BME280;51342;55.250;37.668;2023-05-12T03:05:31;100225.72;;;6.54;74.26
45369;BME280;51342;55.250;37.668;2023-05-12T03:08:02;100220.56;;;6.64;74.22
45369;BME280;51342;55.250;37.668;2023-05-12T03:10:34;100219.38;;;6.71;74.20
45369;BME280;51342;55.250;37.668;2023-05-12T03:13:05;100219.84;;;6.87;74.26
45369;BME280;51342;55.250;37.668;2023-05-12T03:15:36;100224.72;;;7.16;74.24
45369;BME280;51342;55.250;37.668;2023-05-12T03:18:08;100219.25;;;7.45;73.97
45369;BME280;51342;55.250;37.668;2023-05-12T03:20:40;100221.75;;;7.77;73.65
45369;BME280;51342;55.250;37.668;2023-05-12T03:23:11;100224.53;;;8.14;73.82
45369;BME280;51342;55.250;37.668;2023-05-12T03:25:43;100226.63;;;8.53;73.10
45369;BME280;51342;55.250;37.668;2023-05-12T03:28:14;100217.19;;;8.77;72.52
45369;BME280;51342;55.250;37.668;2023-05-12T03:30:46;100215.63;;;8.91;72.52
45369;BME280;51342;55.250;37.668;2023-05-12T03:33:17;100214.38;;;8.97;72.77
45369;BME280;51342;55.250;37.668;2023-05-12T03:35:48;100212.53;;;9.20;73.53
45369;BME280;51342;55.250;37.668;2023-05-12T03:38:21;100214.00;;;9.53;72.97
45369;BME280;51342;55.250;37.668;2023-05-12T03:41:02;100210.94;;;9.83;72.11
45369;BME280;51342;55.250;37.668;2023-05-12T03:43:34;100221.22;;;10.08;72.24
45369;BME280;51342;55.250;37.668;2023-05-12T03:46:07;100214.56;;;10.37;72.17
45369;BME280;51342;55.250;37.668;2023-05-12T03:48:38;100208.69;;;10.66;72.69
45369;BME280;51342;55.250;37.668;2023-05-12T03:51:10;100212.47;;;10.98;72.24
45369;BME280;51342;55.250;37.668;2023-05-12T03:53:41;100204.53;;;11.23;71.51
45369;BME280;51342;55.250;37.668;2023-05-12T03:56:15;100215.13;;;11.54;71.10
45369;BME280;51342;55.250;37.668;2023-05-12T03:58:47;100211.25;;;11.75;70.11
45369;BME280;51342;55.250;37.668;2023-05-12T04:01:20;100212.03;;;12.02;70.13
45369;BME280;51342;55.250;37.668;2023-05-12T04:03:51;100208.41;;;12.28;69.45
45369;BME280;51342;55.250;37.668;2023-05-12T04:06:23;100201.13;;;12.52;68.58
45369;BME280;51342;55.250;37.668;2023-05-12T04:08:54;100201.72;;;12.78;67.96
45369;BME280;51342;55.250;37.668;2023-05-12T04:11:25;100198.09;;;13.05;67.81
45369;BME280;51342;55.250;37.668;2023-05-12T04:13:57;100198.47;;;13.28;68.38
45369;BME280;51342;55.250;37.668;2023-05-12T04:16:28;100196.31;;;13.51;67.24
45369;BME280;51342;55.250;37.668;2023-05-12T04:19:02;100192.47;;;13.61;66.52
45369;BME280;51342;55.250;37.668;2023-05-12T04:21:34;100191.56;;;13.61;65.92
45369;BME280;51342;55.250;37.668;2023-05-12T04:24:05;100196.56;;;13.56;65.47
45369;BME280;51342;55.250;37.668;2023-05-12T04:26:40;100190.84;;;13.47;64.86
45369;BME280;51342;55.250;37.668;2023-05-12T04:29:12;100189.38;;;13.36;65.11
45369;BME280;51342;55.250;37.668;2023-05-12T04:31:43;100194.88;;;13.25;65.51
45369;BME280;51342;55.250;37.668;2023-05-12T04:34:15;100196.84;;;13.15;66.11
45369;BME280;51342;55.250;37.668;2023-05-12T04:36:46;100190.44;;;13.08;65.75
45369;BME280;51342;55.250;37.668;2023-05-12T04:39:18;100191.88;;;13.03;65.73
45369;BME280;51342;55.250;37.668;2023-05-12T04:41:49;100192.63;;;13.00;65.22
45369;BME280;51342;55.250;37.668;2023-05-12T04:44:21;100196.03;;;12.99;65.32
45369;BME280;51342;55.250;37.668;2023-05-12T04:46:54;100194.34;;;13.00;64.81
45369;BME280;51342;55.250;37.668;2023-05-12T04:49:26;100195.16;;;12.99;64.11
45369;BME280;51342;55.250;37.668;2023-05-12T04:51:58;100193.44;;;12.99;63.90
45369;BME280;51342;55.250;37.668;2023-05-12T04:54:30;100195.03;;;12.97;63.92
45369;BME280;51342;55.250;37.668;2023-05-12T04:57:03;100196.94;;;13.00;64.13
45369;BME280;51342;55.250;37.668;2023-05-12T04:59:35;100197.97;;;13.04;63.07
45369;BME280;51342;55.250;37.668;2023-05-12T05:02:07;100195.38;;;13.04;63.41
45369;BME280;51342;55.250;37.668;2023-05-12T05:04:39;100207.31;;;13.00;62.59
45369;BME280;51342;55.250;37.668;2023-05-12T05:07:11;100194.00;;;12.94;62.21
45369;BME280;51342;55.250;37.668;2023-05-12T05:09:42;100189.78;;;12.96;62.78
45369;BME280;51342;55.250;37.668;2023-05-12T05:12:14;100193.53;;;13.01;62.62
45369;BME280;51342;55.250;37.668;2023-05-12T05:14:45;100192.06;;;13.06;62.82
45369;BME280;51342;55.250;37.668;2023-05-12T05:17:17;100200.28;;;13.14;62.41
45369;BME280;51342;55.250;37.668;2023-05-12T05:19:48;100195.34;;;13.18;61.57
45369;BME280;51342;55.250;37.668;2023-05-12T05:22:20;100194.88;;;13.25;61.30
45369;BME280;51342;55.250;37.668;2023-05-12T05:24:51;100199.59;;;13.33;60.60
45369;BME280;51342;55.250;37.668;2023-05-12T05:27:23;100198.41;;;13.42;61.85
45369;BME280;51342;55.250;37.668;2023-05-12T05:29:54;100194.84;;;13.57;61.11
45369;BME280;51342;55.250;37.668;2023-05-12T05:32:26;100195.41;;;13.67;61.28
45369;BME280;51342;55.250;37.668;2023-05-12T05:34:57;100183.88;;;13.78;61.08
45369;BME280;51342;55.250;37.668;2023-05-12T05:37:29;100185.63;;;13.96;61.76
45369;BME280;51342;55.250;37.668;2023-05-12T05:40:01;100185.56;;;14.12;61.80
45369;BME280;51342;55.250;37.668;2023-05-12T05:42:32;100184.66;;;14.28;60.98
45369;BME280;51342;55.250;37.668;2023-05-12T05:45:04;100176.09;;;14.47;58.57
45369;BME280;51342;55.250;37.668;2023-05-12T05:47:36;100175.56;;;14.54;56.39
45369;BME280;51342;55.250;37.668;2023-05-12T05:50:08;100182.03;;;14.62;57.05
45369;BME280;51342;55.250;37.668;2023-05-12T05:52:42;100173.56;;;14.66;56.69
45369;BME280;51342;55.250;37.668;2023-05-12T05:55:14;100176.31;;;14.69;57.54
45369;BME280;51342;55.250;37.668;2023-05-12T05:57:46;100172.66;;;14.83;59.54
45369;BME280;51342;55.250;37.668;2023-05-12T06:00:17;100175.06;;;15.16;59.03
45369;BME280;51342;55.250;37.668;2023-05-12T06:02:52;100174.69;;;15.46;56.60
45369;BME280;51342;55.250;37.668;2023-05-12T06:05:25;100169.28;;;15.60;56.93
45369;BME280;51342;55.250;37.668;2023-05-12T06:07:57;100160.34;;;15.75;57.04
45369;BME280;51342;55.250;37.668;2023-05-12T06:10:29;100162.19;;;15.97;57.28
45369;BME280;51342;55.250;37.668;2023-05-12T06:13:01;100169.03;;;16.14;56.70
45369;BME280;51342;55.250;37.668;2023-05-12T06:15:32;100162.94;;;16.34;54.45
45369;BME280;51342;55.250;37.668;2023-05-12T06:18:04;100152.44;;;16.55;55.84
45369;BME280;51342;55.250;37.668;2023-05-12T06:20:35;100154.94;;;16.73;55.05
45369;BME280;51342;55.250;37.668;2023-05-12T06:23:07;100157.66;;;16.97;55.82
45369;BME280;51342;55.250;37.668;2023-05-12T06:25:38;100156.63;;;17.16;52.49
45369;BME280;51342;55.250;37.668;2023-05-12T06:28:10;100156.91;;;17.23;53.24
45369;BME280;51342;55.250;37.668;2023-05-12T06:30:41;100151.56;;;17.20;53.38
45369;BME280;51342;55.250;37.668;2023-05-12T06:33:13;100157.88;;;17.26;53.71
45369;BME280;51342;55.250;37.668;2023-05-12T06:35:44;100156.47;;;17.35;51.33
45369;BME280;51342;55.250;37.668;2023-05-12T06:38:15;100154.34;;;17.47;53.17
45369;BME280;51342;55.250;37.668;2023-05-12T06:40:49;100154.28;;;17.70;54.25
45369;BME280;51342;55.250;37.668;2023-05-12T06:43:20;100158.50;;;17.90;51.83
45369;BME280;51342;55.250;37.668;2023-05-12T06:45:51;100143.69;;;17.91;50.74
45369;BME280;51342;55.250;37.668;2023-05-12T06:48:23;100146.44;;;17.94;50.94
45369;BME280;51342;55.250;37.668;2023-05-12T06:50:54;100151.75;;;17.97;51.10
45369;BME280;51342;55.250;37.668;2023-05-12T06:53:25;100152.19;;;18.09;48.79
45369;BME280;51342;55.250;37.668;2023-05-12T06:55:59;100147.44;;;18.23;50.45
45369;BME280;51342;55.250;37.668;2023-05-12T06:58:31;100138.19;;;18.34;46.43
45369;BME280;51342;55.250;37.668;2023-05-12T07:01:03;100140.78;;;18.33;47.13
45369;BME280;51342;55.250;37.668;2023-05-12T07:03:34;100144.00;;;18.25;47.96
45369;BME280;51342;55.250;37.668;2023-05-12T07:06:06;100140.28;;;18.19;47.76
45369;BME280;51342;55.250;37.668;2023-05-12T07:08:37;100146.25;;;18.15;50.41
45369;BME280;51342;55.250;37.668;2023-05-12T07:11:09;100144.69;;;18.20;48.97
45369;BME280;51342;55.250;37.668;2023-05-12T07:13:40;100137.16;;;18.29;48.84
45369;BME280;51342;55.250;37.668;2023-05-12T07:16:13;100140.28;;;18.44;48.98
45369;BME280;51342;55.250;37.668;2023-05-12T07:18:45;100140.72;;;18.58;50.03
45369;BME280;51342;55.250;37.668;2023-05-12T07:21:16;100136.78;;;18.71;49.90
45369;BME280;51342;55.250;37.668;2023-05-12T07:23:48;100137.22;;;18.85;48.31
45369;BME280;51342;55.250;37.668;2023-05-12T07:26:19;100136.53;;;18.90;49.24
45369;BME280;51342;55.250;37.668;2023-05-12T07:28:54;100137.75;;;19.01;48.24
45369;BME280;51342;55.250;37.668;2023-05-12T07:31:25;100136.91;;;19.02;47.32
45369;BME280;51342;55.250;37.668;2023-05-12T07:33:56;100122.97;;;19.05;46.47
45369;BME280;51342;55.250;37.668;2023-05-12T07:36:28;100126.78;;;19.15;47.06
45369;BME280;51342;55.250;37.668;2023-05-12T07:38:59;100127.97;;;19.26;47.53
45369;BME280;51342;55.250;37.668;2023-05-12T07:41:31;100125.69;;;19.38;48.08
45369;BME280;51342;55.250;37.668;2023-05-12T07:44:02;100126.75;;;19.45;46.20
45369;BME280;51342;55.250;37.668;2023-05-12T07:46:33;100120.94;;;19.55;45.70
45369;BME280;51342;55.250;37.668;2023-05-12T07:49:05;100117.66;;;19.62;43.56
45369;BME280;51342;55.250;37.668;2023-05-12T07:51:37;100118.75;;;19.69;45.64
45369;BME280;51342;55.250;37.668;2023-05-12T07:54:09;100113.72;;;19.78;44.97
45369;BME280;51342;55.250;37.668;2023-05-12T07:56:40;100112.25;;;19.89;44.56
45369;BME280;51342;55.250;37.668;2023-05-12T07:59:12;100111.63;;;19.98;41.79
45369;BME280;51342;55.250;37.668;2023-05-12T08:01:44;100107.25;;;19.98;42.24
45369;BME280;51342;55.250;37.668;2023-05-12T08:04:15;100114.19;;;19.96;40.38
45369;BME280;51342;55.250;37.668;2023-05-12T08:06:47;100109.78;;;19.95;35.95
45369;BME280;51342;55.250;37.668;2023-05-12T08:09:18;100103.69;;;19.96;37.87
45369;BME280;51342;55.250;37.668;2023-05-12T08:11:49;100102.00;;;19.98;35.79
45369;BME280;51342;55.250;37.668;2023-05-12T08:14:21;100093.19;;;19.96;35.76
45369;BME280;51342;55.250;37.668;2023-05-12T08:16:52;100098.53;;;19.99;37.85
45369;BME280;51342;55.250;37.668;2023-05-12T08:19:23;100101.34;;;20.07;38.16
45369;BME280;51342;55.250;37.668;2023-05-12T08:21:55;100102.34;;;20.12;36.43
45369;BME280;51342;55.250;37.668;2023-05-12T08:24:27;100092.59;;;20.08;34.05
45369;BME280;51342;55.250;37.668;2023-05-12T08:26:58;100095.09;;;20.02;35.38
45369;BME280;51342;55.250;37.668;2023-05-12T08:29:29;100093.59;;;20.11;38.76
45369;BME280;51342;55.250;37.668;2023-05-12T08:32:01;100094.84;;;20.26;35.47
45369;BME280;51342;55.250;37.668;2023-05-12T08:34:33;100094.13;;;20.33;34.68
45369;BME280;51342;55.250;37.668;2023-05-12T08:37:05;100089.09;;;20.42;37.20
45369;BME280;51342;55.250;37.668;2023-05-12T08:39:36;100081.56;;;20.56;36.63
45369;BME280;51342;55.250;37.668;2023-05-12T08:42:13;100086.28;;;20.71;36.83
45369;BME280;51342;55.250;37.668;2023-05-12T08:44:48;100080.41;;;20.82;37.13
45369;BME280;51342;55.250;37.668;2023-05-12T08:47:21;100078.06;;;20.95;38.54
45369;BME280;51342;55.250;37.668;2023-05-12T08:50:00;100068.53;;;21.00;35.59
45369;BME280;51342;55.250;37.668;2023-05-12T08:52:33;100066.88;;;21.05;37.30
45369;BME280;51342;55.250;37.668;2023-05-12T08:55:06;100069.66;;;21.12;36.24
45369;BME280;51342;55.250;37.668;2023-05-12T08:57:39;100066.38;;;21.23;34.02
45369;BME280;51342;55.250;37.668;2023-05-12T09:00:13;100059.34;;;21.23;31.73
45369;BME280;51342;55.250;37.668;2023-05-12T09:02:46;100054.00;;;21.20;32.50
45369;BME280;51342;55.250;37.668;2023-05-12T09:05:18;100051.38;;;21.20;35.32
45369;BME280;51342;55.250;37.668;2023-05-12T09:07:50;100051.47;;;21.23;31.12
45369;BME280;51342;55.250;37.668;2023-05-12T09:10:26;100070.63;;;21.17;29.99
45369;BME280;51342;55.250;37.668;2023-05-12T09:16:00;100050.00;;;20.95;27.19
45369;BME280;51342;55.250;37.668;2023-05-12T09:18:47;100054.25;;;20.88;30.53
45369;BME280;51342;55.250;37.668;2023-05-12T09:21:20;100054.38;;;20.95;26.98
45369;BME280;51342;55.250;37.668;2023-05-12T09:23:59;100051.56;;;20.87;27.38
45369;BME280;51342;55.250;37.668;2023-05-12T09:26:50;100054.28;;;20.90;26.29
45369;BME280;51342;55.250;37.668;2023-05-12T09:29:22;100052.59;;;20.94;25.90
45369;BME280;51342;55.250;37.668;2023-05-12T09:31:56;100058.75;;;20.94;26.51
45369;BME280;51342;55.250;37.668;2023-05-12T09:34:32;100051.69;;;20.93;27.24
45369;BME280;51342;55.250;37.668;2023-05-12T09:37:06;100042.03;;;20.92;26.49
45369;BME280;51342;55.250;37.668;2023-05-12T09:39:37;100036.00;;;20.98;26.71
45369;BME280;51342;55.250;37.668;2023-05-12T09:42:11;100036.31;;;21.11;28.54
45369;BME280;51342;55.250;37.668;2023-05-12T09:44:43;100032.97;;;21.20;28.02
45369;BME280;51342;55.250;37.668;2023-05-12T09:47:16;100031.28;;;21.22;25.98
45369;BME280;51342;55.250;37.668;2023-05-12T09:49:50;100032.16;;;21.24;26.00
45369;BME280;51342;55.250;37.668;2023-05-12T09:52:22;100037.34;;;21.21;25.60
45369;BME280;51342;55.250;37.668;2023-05-12T09:54:54;100032.94;;;21.18;26.12
45369;BME280;51342;55.250;37.668;2023-05-12T09:57:25;100032.06;;;21.18;27.16
45369;BME280;51342;55.250;37.668;2023-05-12T09:59:57;100018.03;;;21.19;25.64
45369;BME280;51342;55.250;37.668;2023-05-12T10:02:29;100027.00;;;21.27;29.42
45369;BME280;51342;55.250;37.668;2023-05-12T10:05:03;100033.22;;;21.31;27.61
45369;BME280;51342;55.250;37.668;2023-05-12T10:07:36;100036.81;;;21.34;29.08
45369;BME280;51342;55.250;37.668;2023-05-12T10:10:09;100021.03;;;21.36;26.41
45369;BME280;51342;55.250;37.668;2023-05-12T10:12:41;100025.38;;;21.34;25.74
45369;BME280;51342;55.250;37.668;2023-05-12T10:15:13;100028.03;;;21.34;26.41
45369;BME280;51342;55.250;37.668;2023-05-12T10:17:45;100012.88;;;21.25;24.62
45369;BME280;51342;55.250;37.668;2023-05-12T10:20:17;100022.50;;;21.22;24.00
45369;BME280;51342;55.250;37.668;2023-05-12T10:22:50;100016.25;;;21.18;24.29
45369;BME280;51342;55.250;37.668;2023-05-12T10:25:22;100020.66;;;21.17;23.51
45369;BME280;51342;55.250;37.668;2023-05-12T10:27:54;100010.00;;;21.11;24.34
45369;BME280;51342;55.250;37.668;2023-05-12T10:30:26;100008.94;;;21.03;24.34
45369;BME280;51342;55.250;37.668;2023-05-12T10:32:58;100014.81;;;20.90;24.87
45369;BME280;51342;55.250;37.668;2023-05-12T10:35:36;100018.09;;;20.78;24.04
45369;BME280;51342;55.250;37.668;2023-05-12T10:38:13;100018.88;;;20.76;24.24
45369;BME280;51342;55.250;37.668;2023-05-12T10:41:01;100016.41;;;20.82;24.22
45369;BME280;51342;55.250;37.668;2023-05-12T10:43:41;100017.47;;;20.91;24.32
45369;BME280;51342;55.250;37.668;2023-05-12T10:46:20;100018.19;;;20.83;24.51
45369;BME280;51342;55.250;37.668;2023-05-12T10:49:13;100017.97;;;20.74;24.14
45369;BME280;51342;55.250;37.668;2023-05-12T10:51:47;100018.88;;;20.76;23.93
45369;BME280;51342;55.250;37.668;2023-05-12T10:54:22;100020.00;;;20.87;23.70
45369;BME280;51342;55.250;37.668;2023-05-12T10:56:57;100012.28;;;20.95;24.31
45369;BME280;51342;55.250;37.668;2023-05-12T10:59:29;100014.16;;;21.00;22.84
45369;BME280;51342;55.250;37.668;2023-05-12T11:02:11;100008.13;;;21.06;24.13
45369;BME280;51342;55.250;37.668;2023-05-12T11:07:20;100017.84;;;21.10;23.25
45369;BME280;51342;55.250;37.668;2023-05-12T11:09:53;100012.63;;;21.11;23.12
45369;BME280;51342;55.250;37.668;2023-05-12T11:12:26;100002.91;;;21.09;22.58
45369;BME280;51342;55.250;37.668;2023-05-12T11:14:59;100006.53;;;21.14;23.98
45369;BME280;51342;55.250;37.668;2023-05-12T11:17:31;100001.38;;;21.18;24.57
45369;BME280;51342;55.250;37.668;2023-05-12T11:20:03;100003.19;;;21.23;24.94
45369;BME280;51342;55.250;37.668;2023-05-12T11:22:34;100007.66;;;21.27;27.51
45369;BME280;51342;55.250;37.668;2023-05-12T11:25:10;99999.88;;;21.31;26.02
45369;BME280;51342;55.250;37.668;2023-05-12T11:27:49;99997.97;;;21.26;24.93
45369;BME280;51342;55.250;37.668;2023-05-12T11:30:21;100001.38;;;21.18;24.99
45369;BME280;51342;55.250;37.668;2023-05-12T11:33:00;100001.06;;;21.03;24.17
45369;BME280;51342;55.250;37.668;2023-05-12T11:35:32;100012.28;;;20.95;25.73
45369;BME280;51342;55.250;37.668;2023-05-12T11:38:13;100012.84;;;20.80;25.62
45369;BME280;51342;55.250;37.668;2023-05-12T11:40:46;100012.94;;;20.83;24.11
45369;BME280;51342;55.250;37.668;2023-05-12T11:43:20;100009.47;;;20.87;25.34
45369;BME280;51342;55.250;37.668;2023-05-12T11:45:52;100001.88;;;20.99;24.92
45369;BME280;51342;55.250;37.668;2023-05-12T11:48:32;99987.88;;;21.02;25.57
45369;BME280;51342;55.250;37.668;2023-05-12T11:51:04;99993.13;;;21.02;26.11
45369;BME280;51342;55.250;37.668;2023-05-12T11:53:39;99996.59;;;20.99;25.23
45369;BME280;51342;55.250;37.668;2023-05-12T11:56:17;99998.25;;;20.94;26.61
45369;BME280;51342;55.250;37.668;2023-05-12T11:58:56;99998.13;;;20.88;24.89
45369;BME280;51342;55.250;37.668;2023-05-12T12:01:28;100000.59;;;20.80;23.90
45369;BME280;51342;55.250;37.668;2023-05-12T12:04:00;100003.97;;;20.75;24.63
45369;BME280;51342;55.250;37.668;2023-05-12T12:06:42;99997.78;;;20.71;26.19
45369;BME280;51342;55.250;37.668;2023-05-12T12:09:14;100003.94;;;20.72;25.24
45369;BME280;51342;55.250;37.668;2023-05-12T12:11:45;100001.22;;;20.69;25.17
45369;BME280;51342;55.250;37.668;2023-05-12T12:14:16;100000.34;;;20.70;26.68
45369;BME280;51342;55.250;37.668;2023-05-12T12:16:48;100000.31;;;20.67;24.49
45369;BME280;51342;55.250;37.668;2023-05-12T12:19:19;99994.09;;;20.64;26.00
45369;BME280;51342;55.250;37.668;2023-05-12T12:21:50;99996.84;;;20.69;28.70
45369;BME280;51342;55.250;37.668;2023-05-12T12:24:23;99998.59;;;20.69;25.80
45369;BME280;51342;55.250;37.668;2023-05-12T12:26:54;99992.31;;;20.62;25.22
45369;BME280;51342;55.250;37.668;2023-05-12T12:29:25;99988.72;;;20.58;26.90
45369;BME280;51342;55.250;37.668;2023-05-12T12:31:58;99999.25;;;20.58;27.27
45369;BME280;51342;55.250;37.668;2023-05-12T12:34:29;100000.94;;;20.56;28.52
45369;BME280;51342;55.250;37.668;2023-05-12T12:37:01;99998.22;;;20.52;29.32
45369;BME280;51342;55.250;37.668;2023-05-12T12:39:32;100002.59;;;20.51;31.59
45369;BME280;51342;55.250;37.668;2023-05-12T12:42:04;99998.19;;;20.50;29.58
45369;BME280;51342;55.250;37.668;2023-05-12T12:44:35;100006.94;;;20.49;30.47
45369;BME280;51342;55.250;37.668;2023-05-12T12:47:07;100002.59;;;20.51;31.01
45369;BME280;51342;55.250;37.668;2023-05-12T12:49:38;100001.72;;;20.52;29.75
45369;BME280;51342;55.250;37.668;2023-05-12T12:52:10;99994.72;;;20.53;29.17
45369;BME280;51342;55.250;37.668;2023-05-12T12:54:42;100000.84;;;20.52;29.24
45369;BME280;51342;55.250;37.668;2023-05-12T12:57:14;100002.56;;;20.50;30.08
45369;BME280;51342;55.250;37.668;2023-05-12T12:59:45;99991.09;;;20.46;29.74
45369;BME280;51342;55.250;37.668;2023-05-12T13:02:16;99992.78;;;20.44;29.76
45369;BME280;51342;55.250;37.668;2023-05-12T13:04:48;99991.88;;;20.42;31.40
45369;BME280;51342;55.250;37.668;2023-05-12T13:07:19;99994.41;;;20.39;28.30
45369;BME280;51342;55.250;37.668;2023-05-12T13:09:51;99988.16;;;20.34;26.69
45369;BME280;51342;55.250;37.668;2023-05-12T13:12:23;99988.25;;;20.38;30.69
45369;BME280;51342;55.250;37.668;2023-05-12T13:14:55;99989.16;;;20.39;28.62